createdAt,value
2023-01-01T00:01:42.611Z,99152.59
2023-01-01T00:04:13.160Z,99156.13
2023-01-01T00:06:40.369Z,99156.13
2023-01-01T00:09:25.850Z,99166.91
2023-01-01T00:11:54.072Z,99154.44
2023-01-01T00:14:20.948Z,99154.44
2023-01-01T00:16:47.868Z,99163.38
2023-01-01T00:19:14.768Z,99166.28
2023-01-01T00:21:41.653Z,99166.91
2023-01-01T00:24:09.188Z,99162.53
2023-01-01T00:26:36.095Z,99169.81
2023-01-01T00:29:04.773Z,99166.28
2023-01-01T00:31:31.989Z,99172.50
2023-01-01T00:33:59.550Z,99171.91
2023-01-01T00:36:27.708Z,99158.19
2023-01-01T00:38:55.177Z,99164.44
2023-01-01T00:41:22.082Z,99163.38
2023-01-01T00:43:49.107Z,99165.50
2023-01-01T00:46:17.415Z,99146.63
2023-01-01T00:48:44.284Z,99165.22
2023-01-01T00:51:11.248Z,99148.03
2023-01-01T00:53:38.477Z,99144.72
2023-01-01T00:56:06.090Z,99143.31
2023-01-01T00:58:33.306Z,99143.94
2023-01-01T01:01:00.467Z,99139.56
2023-01-01T01:03:28.957Z,99129.63
2023-01-01T01:05:57.536Z,99128.78
2023-01-01T01:08:30.421Z,99127.38
2023-01-01T01:11:04.918Z,99135.22
2023-01-01T01:13:31.878Z,99135.22
2023-01-01T01:15:58.981Z,99126.31
2023-01-01T01:18:26.374Z,99128.78
2023-01-01T01:20:54.833Z,99127.75
2023-01-01T01:23:21.857Z,99135.22
2023-01-01T01:25:48.772Z,99137.69
2023-01-01T01:28:15.857Z,99144.94
2023-01-01T01:30:42.745Z,99146.63
2023-01-01T01:33:09.856Z,99165.72
2023-01-01T01:35:36.758Z,99156.22
2023-01-01T01:38:04.978Z,99164.88
2023-01-01T01:40:33.055Z,99159.47
2023-01-01T01:42:59.934Z,99158.66
2023-01-01T01:45:33.035Z,99155.16
2023-01-01T01:48:01.343Z,99159.47
2023-01-01T01:50:32.046Z,99146.22
2023-01-01T01:53:08.768Z,99165.94
2023-01-01T01:55:42.511Z,99157.84
2023-01-01T01:58:13.482Z,99158.91
2023-01-01T02:00:40.328Z,99163.22
2023-01-01T02:03:08.872Z,99157.84
2023-01-01T02:05:38.064Z,99154.31
2023-01-01T02:08:07.544Z,99160.53
2023-01-01T02:10:34.720Z,99148.13
2023-01-01T02:13:02.015Z,99147.28
2023-01-01T02:15:33.428Z,99158.91
2023-01-01T02:18:02.237Z,99168.63
2023-01-01T02:20:38.640Z,99165.31
2023-01-01T02:23:29.630Z,99168.47
2023-01-01T02:26:09.820Z,99167.44
2023-01-01T02:28:51.764Z,99169.50
2023-01-01T02:31:23.626Z,99175.72
2023-01-01T02:33:53.616Z,99168.47
2023-01-01T02:36:22.255Z,99178.00
2023-01-01T02:38:54.804Z,99173.88
2023-01-01T02:41:25.064Z,99177.59
2023-01-01T02:43:53.559Z,99171.97
2023-01-01T02:48:47.761Z,99179.00
2023-01-01T02:51:25.101Z,99191.47
2023-01-01T02:53:59.812Z,99192.47
2023-01-01T02:56:36.728Z,99184.88
2023-01-01T02:59:36.264Z,99185.22
2023-01-01T03:02:12.804Z,99200.81
2023-01-01T03:04:49.670Z,99191.06
2023-01-01T03:07:26.110Z,99192.75
2023-01-01T03:09:59.078Z,99194.59
2023-01-01T03:12:39.917Z,99206.22
2023-01-01T03:15:19.405Z,99198.13
2023-01-01T03:17:52.258Z,99203.50
2023-01-01T03:20:23.166Z,99182.19
2023-01-01T03:22:53.732Z,99192.13
2023-01-01T03:25:23.869Z,99198.13
2023-01-01T03:27:53.525Z,99194.59
2023-01-01T03:30:22.470Z,99201.25
2023-01-01T03:33:00.620Z,99201.84
2023-01-01T03:35:35.500Z,99195.66
2023-01-01T03:38:05.688Z,99205.59
2023-01-01T03:40:36.948Z,99202.91
2023-01-01T03:43:11.828Z,99209.13
2023-01-01T03:45:46.094Z,99202.69
2023-01-01T03:48:13.360Z,99207.22
2023-01-01T03:50:56.124Z,99203.75
2023-01-01T03:53:34.330Z,99206.44
2023-01-01T03:56:10.994Z,99210.97
2023-01-01T03:58:43.854Z,99209.34
2023-01-01T04:01:16.259Z,99213.69
2023-01-01T04:03:43.531Z,99207.44
2023-01-01T04:06:11.761Z,99201.84
2023-01-01T04:08:38.965Z,99212.63
2023-01-01T04:11:30.571Z,99213.69
2023-01-01T04:13:57.215Z,99218.00
2023-01-01T04:16:25.502Z,99213.09
2023-01-01T04:18:52.423Z,99222.19
2023-01-01T04:21:19.290Z,99219.72
2023-01-01T04:23:46.247Z,99224.69
2023-01-01T04:26:14.209Z,99215.78
2023-01-01T04:28:41.676Z,99214.50
2023-01-01T04:31:09.113Z,99217.44
2023-01-01T04:33:37.991Z,99221.75
2023-01-01T04:36:06.727Z,99221.97
2023-01-01T04:38:34.593Z,99213.91
2023-01-01T04:41:02.367Z,99223.88
2023-01-01T04:43:30.098Z,99220.13
2023-01-01T04:45:57.437Z,99224.69
2023-01-01T04:48:24.773Z,99223.88
2023-01-01T04:50:57.721Z,99213.09
2023-01-01T04:53:24.699Z,99223.03
2023-01-01T04:55:51.692Z,99221.19
2023-01-01T04:58:18.715Z,99229.47
2023-01-01T05:00:49.196Z,99225.94
2023-01-01T05:03:16.353Z,99227.59
2023-01-01T05:05:48.026Z,99234.66
2023-01-01T05:08:19.355Z,99241.06
2023-01-01T05:10:46.341Z,99251.25
2023-01-01T05:13:13.204Z,99252.91
2023-01-01T05:15:40.057Z,99258.91
2023-01-01T05:18:06.949Z,99249.97
2023-01-01T05:20:33.800Z,99256.66
2023-01-01T05:23:00.659Z,99252.31
2023-01-01T05:25:28.868Z,99259.34
2023-01-01T05:27:55.720Z,99257.44
2023-01-01T05:30:22.609Z,99248.34
2023-01-01T05:32:49.433Z,99251.84
2023-01-01T05:35:19.306Z,99263.69
2023-01-01T05:37:51.983Z,99263.69
2023-01-01T05:40:18.830Z,99279.25
2023-01-01T05:42:48.237Z,99279.00
2023-01-01T05:45:15.152Z,99281.94
2023-01-01T05:47:41.968Z,99288.97
2023-01-01T05:52:35.543Z,99279.25
2023-01-01T05:55:02.443Z,99290.25
2023-01-01T05:57:29.491Z,99298.91
2023-01-01T05:59:57.873Z,99300.81
2023-01-01T06:02:24.765Z,99307.84
2023-01-01T06:04:51.651Z,99303.25
2023-01-01T06:07:18.837Z,99310.53
2023-01-01T06:09:45.708Z,99318.00
2023-01-01T06:12:12.575Z,99310.53
2023-01-01T06:14:39.459Z,99299.75
2023-01-01T06:17:08.015Z,99308.66
2023-01-01T06:19:34.912Z,99313.38
2023-01-01T06:22:01.813Z,99320.19
2023-01-01T06:24:31.450Z,99317.28
2023-01-01T06:27:00.739Z,99328.69
2023-01-01T06:29:27.572Z,99323.66
2023-01-01T06:31:54.430Z,99324.88
2023-01-01T06:34:22.667Z,99326.94
2023-01-01T06:36:49.548Z,99327.31
2023-01-01T06:39:16.365Z,99338.44
2023-01-01T06:41:43.241Z,99336.75
2023-01-01T06:44:10.089Z,99343.34
2023-01-01T06:46:37.090Z,99346.44
2023-01-01T06:49:06.001Z,99360.63
2023-01-01T06:51:38.486Z,99357.28
2023-01-01T06:54:06.344Z,99350.97
2023-01-01T06:56:33.910Z,99341.41
2023-01-01T06:59:01.630Z,99344.25
2023-01-01T07:01:30.280Z,99348.16
2023-01-01T07:03:58.533Z,99351.81
2023-01-01T07:06:26.728Z,99348.66
2023-01-01T07:08:55.113Z,99348.84
2023-01-01T07:11:22.751Z,99341.94
2023-01-01T07:13:49.637Z,99339.63
2023-01-01T07:16:17.585Z,99348.91
2023-01-01T07:18:45.682Z,99354.66
2023-01-01T07:21:30.781Z,99355.88
2023-01-01T07:24:00.774Z,99359.19
2023-01-01T07:26:29.112Z,99359.75
2023-01-01T07:29:02.775Z,99353.91
2023-01-01T07:31:33.385Z,99344.53
2023-01-01T07:34:00.315Z,99359.44
2023-01-01T07:36:27.189Z,99355.47
2023-01-01T07:38:55.009Z,99356.06
2023-01-01T07:41:23.276Z,99365.59
2023-01-01T07:43:50.134Z,99356.44
2023-01-01T07:46:19.027Z,99362.44
2023-01-01T07:48:45.990Z,99364.31
2023-01-01T07:51:12.978Z,99373.81
2023-01-01T07:53:40.097Z,99376.28
2023-01-01T07:56:08.130Z,99388.75
2023-01-01T07:58:39.061Z,99394.97
2023-01-01T08:01:05.979Z,99394.97
2023-01-01T08:03:32.894Z,99402.84
2023-01-01T08:05:59.793Z,99412.59
2023-01-01T08:08:26.673Z,99417.78
2023-01-01T08:10:54.323Z,99416.94
2023-01-01T08:13:22.565Z,99415.28
2023-01-01T08:15:51.795Z,99413.66
2023-01-01T08:18:18.791Z,99421.75
2023-01-01T08:20:45.645Z,99420.47
2023-01-01T08:23:12.516Z,99420.69
2023-01-01T08:25:39.359Z,99428.56
2023-01-01T08:28:06.201Z,99420.69
2023-01-01T08:30:33.040Z,99423.63
2023-01-01T08:33:01.280Z,99413.66
2023-01-01T08:35:28.108Z,99406.34
2023-01-01T08:37:55.008Z,99399.31
2023-01-01T08:40:22.100Z,99392.03
2023-01-01T08:42:48.959Z,99406.56
2023-01-01T08:45:15.914Z,99405.56
2023-01-01T08:47:43.680Z,99409.06
2023-01-01T08:50:11.897Z,99406.13
2023-01-01T08:52:38.782Z,99411.75
2023-01-01T08:55:06.471Z,99409.06
2023-01-01T08:57:33.416Z,99408.47
2023-01-01T09:00:00.304Z,99417.38
2023-01-01T09:02:27.358Z,99423.63
2023-01-01T09:04:54.296Z,99421.13
2023-01-01T09:07:22.568Z,99414.94
2023-01-01T09:09:49.403Z,99418.66
2023-01-01T09:12:16.733Z,99413.25
2023-01-01T09:14:46.726Z,99403.53
2023-01-01T09:17:13.593Z,99403.53
2023-01-01T09:19:40.496Z,99402.47
2023-01-01T09:22:09.580Z,99412.69
2023-01-01T09:24:38.216Z,99411.84
2023-01-01T09:27:05.421Z,99421.59
2023-01-01T09:29:33.007Z,99417.84
2023-01-01T09:32:00.038Z,99417.84
2023-01-01T09:34:27.014Z,99414.31
2023-01-01T09:36:53.921Z,99422.66
2023-01-01T09:39:20.751Z,99428.88
2023-01-01T09:42:04.976Z,99426.19
2023-01-01T09:44:50.679Z,99425.56
2023-01-01T09:47:24.521Z,99420.78
2023-01-01T09:49:54.649Z,99430.75
2023-01-01T09:52:21.620Z,99425.56
2023-01-01T09:54:55.716Z,99424.53
2023-01-01T09:57:28.225Z,99421.22
2023-01-01T09:59:55.607Z,99426.63
2023-01-01T10:02:35.819Z,99421.22
2023-01-01T10:05:14.825Z,99419.94
2023-01-01T10:07:47.831Z,99425.34
2023-01-01T10:10:26.938Z,99418.88
2023-01-01T10:13:05.271Z,99418.31
2023-01-01T10:15:36.499Z,99416.44
2023-01-01T10:18:06.732Z,99416.19
2023-01-01T10:20:38.711Z,99408.34
2023-01-01T10:23:18.255Z,99405.88
2023-01-01T10:25:45.652Z,99413.34
2023-01-01T10:28:20.807Z,99409.84
2023-01-01T10:30:47.671Z,99401.28
2023-01-01T10:33:14.939Z,99409.97
2023-01-01T10:35:46.723Z,99384.63
2023-01-01T10:38:25.292Z,99390.03
2023-01-01T10:40:54.862Z,99386.47
2023-01-01T10:43:23.071Z,99385.69
2023-01-01T10:45:53.738Z,99389.44
2023-01-01T10:48:22.593Z,99385.91
2023-01-01T10:50:51.761Z,99385.06
2023-01-01T10:53:28.033Z,99380.50
2023-01-01T10:56:10.786Z,99372.84
2023-01-01T10:58:42.252Z,99378.47
2023-01-01T11:01:10.056Z,99368.28
2023-01-01T11:03:37.354Z,99357.34
2023-01-01T11:06:10.620Z,99351.97
2023-01-01T11:08:41.190Z,99345.50
2023-01-01T11:11:23.190Z,99343.63
2023-01-01T11:13:53.624Z,99346.56
2023-01-01T11:16:21.248Z,99343.03
2023-01-01T11:18:49.781Z,99337.84
2023-01-01T11:21:22.047Z,99331.38
2023-01-01T11:24:11.025Z,99330.81
2023-01-01T11:26:37.923Z,99323.53
2023-01-01T11:29:25.696Z,99316.47
2023-01-01T11:31:53.286Z,99312.13
2023-01-01T11:34:28.844Z,99309.66
2023-01-01T11:37:10.053Z,99312.38
2023-01-01T11:39:37.801Z,99309.09
2023-01-01T11:42:05.889Z,99305.78
2023-01-01T11:44:37.584Z,99301.44
2023-01-01T11:47:06.650Z,99298.13
2023-01-01T11:49:34.545Z,99301.88
2023-01-01T11:52:18.379Z,99292.38
2023-01-01T11:54:46.549Z,99283.69
2023-01-01T11:57:17.290Z,99286.63
2023-01-01T11:59:49.788Z,99282.88
2023-01-01T12:02:24.016Z,99280.38
2023-01-01T12:04:56.806Z,99276.84
2023-01-01T12:07:28.225Z,99288.13
2023-01-01T12:10:01.499Z,99283.19
2023-01-01T12:12:33.774Z,99271.78
2023-01-01T12:15:10.539Z,99278.22
2023-01-01T12:17:39.913Z,99270.59
2023-01-01T12:20:13.339Z,99266.03
2023-01-01T12:22:40.963Z,99277.00
2023-01-01T12:25:13.548Z,99272.31
2023-01-01T12:28:02.459Z,99266.31
2023-01-01T12:30:37.359Z,99269.22
2023-01-01T12:33:18.831Z,99260.56
2023-01-01T12:36:00.980Z,99265.94
2023-01-01T12:38:45.551Z,99262.28
2023-01-01T12:41:21.758Z,99261.66
2023-01-01T12:44:01.145Z,99259.81
2023-01-01T12:46:47.967Z,99245.72
2023-01-01T12:49:49.625Z,99249.69
2023-01-01T12:52:34.454Z,99250.53
2023-01-01T12:55:40.881Z,99229.41
2023-01-01T12:58:13.227Z,99236.91
2023-01-01T13:00:43.582Z,99241.47
2023-01-01T13:03:18.062Z,99237.72
2023-01-01T13:05:49.447Z,99236.91
2023-01-01T13:08:16.327Z,99226.91
2023-01-01T13:10:45.396Z,99227.75
2023-01-01T13:13:13.446Z,99225.91
2023-01-01T13:15:52.868Z,99219.06
2023-01-01T13:18:29.668Z,99213.66
2023-01-01T13:21:02.813Z,99217.41
2023-01-01T13:23:53.471Z,99223.88
2023-01-01T13:26:40.091Z,99220.34
2023-01-01T13:29:40.247Z,99217.91
2023-01-01T13:32:09.022Z,99204.63
2023-01-01T13:35:02.782Z,99204.03
2023-01-01T13:37:42.683Z,99220.19
2023-01-01T13:40:30.011Z,99208.13
2023-01-01T13:43:16.026Z,99221.03
2023-01-01T13:46:11.011Z,99222.91
2023-01-01T13:48:56.106Z,99214.00
2023-01-01T13:52:05.388Z,99212.34
2023-01-01T13:55:16.919Z,99217.16
2023-01-01T13:58:09.172Z,99208.44
2023-01-01T14:00:52.957Z,99210.13
2023-01-01T14:03:20.810Z,99213.41
2023-01-01T14:05:55.206Z,99209.28
2023-01-01T14:08:30.040Z,99215.50
2023-01-01T14:10:57.686Z,99204.72
2023-01-01T14:13:29.988Z,99197.66
2023-01-01T14:16:00.231Z,99192.25
2023-01-01T14:18:33.661Z,99199.91
2023-01-01T14:21:00.754Z,99194.50
2023-01-01T14:23:32.231Z,99186.44
2023-01-01T14:26:00.986Z,99179.41
2023-01-01T14:28:29.935Z,99179.41
2023-01-01T14:31:03.130Z,99177.50
2023-01-01T14:33:34.569Z,99180.44
2023-01-01T14:36:03.982Z,99169.91
2023-01-01T14:38:33.761Z,99173.38
2023-01-01T14:41:06.827Z,99176.09
2023-01-01T14:43:36.270Z,99176.09
2023-01-01T14:46:09.085Z,99185.22
2023-01-01T14:48:37.961Z,99177.75
2023-01-01T14:51:04.994Z,99180.19
2023-01-01T14:53:34.211Z,99171.31
2023-01-01T14:56:03.003Z,99171.53
2023-01-01T14:58:30.383Z,99170.13
2023-01-01T15:01:15.797Z,99171.75
2023-01-01T15:03:55.409Z,99174.44
2023-01-01T15:06:24.223Z,99170.13
2023-01-01T15:08:53.177Z,99164.94
2023-01-01T15:11:26.634Z,99161.19
2023-01-01T15:13:58.143Z,99167.41
2023-01-01T15:16:25.420Z,99168.47
2023-01-01T15:18:53.524Z,99151.25
2023-01-01T15:21:37.311Z,99163.88
2023-01-01T15:24:12.807Z,99160.38
2023-01-01T15:26:43.343Z,99166.81
2023-01-01T15:29:15.829Z,99163.88
2023-01-01T15:31:45.968Z,99152.53
2023-01-01T15:34:31.870Z,99152.53
2023-01-01T15:37:10.583Z,99156.25
2023-01-01T15:39:47.804Z,99150.63
2023-01-01T15:42:33.512Z,99149.22
2023-01-01T15:45:20.194Z,99141.97
2023-01-01T15:47:48.523Z,99145.09
2023-01-01T15:50:22.742Z,99140.78
2023-01-01T15:52:55.476Z,99136.44
2023-01-01T15:55:27.917Z,99120.25
2023-01-01T15:57:55.928Z,99113.81
2023-01-01T16:00:25.831Z,99127.06
2023-01-01T16:02:55.687Z,99120.84
2023-01-01T16:05:25.056Z,99129.78
2023-01-01T16:07:58.263Z,99117.31
2023-01-01T16:10:26.682Z,99113.81
2023-01-01T16:12:54.346Z,99115.69
2023-01-01T16:15:21.222Z,99111.13
2023-01-01T16:17:48.059Z,99105.72
2023-01-01T16:20:16.340Z,99100.34
2023-01-01T16:22:43.387Z,99087.44
2023-01-01T16:25:14.503Z,99080.41
2023-01-01T16:27:43.257Z,99093.31
2023-01-01T16:30:11.953Z,99097.63
2023-01-01T16:32:39.173Z,99093.06
2023-01-01T16:35:11.815Z,99087.91
2023-01-01T16:37:38.845Z,99084.63
2023-01-01T16:40:07.679Z,99086.25
2023-01-01T16:42:34.539Z,99088.16
2023-01-01T16:45:03.076Z,99083.78
2023-01-01T16:47:29.959Z,99071.13
2023-01-01T16:49:56.796Z,99082.75
2023-01-01T16:52:23.687Z,99077.59
2023-01-01T16:54:50.833Z,99067.59
2023-01-01T16:57:17.682Z,99063.28
2023-01-01T16:59:44.510Z,99062.81
2023-01-01T17:02:12.918Z,99065.06
2023-01-01T17:04:39.848Z,99062.59
2023-01-01T17:07:06.684Z,99062.81
2023-01-01T17:09:33.523Z,99059.28
2023-01-01T17:12:00.401Z,99062.00
2023-01-01T17:14:27.438Z,99051.22
2023-01-01T17:16:56.446Z,99054.72
2023-01-01T17:19:24.786Z,99046.66
2023-01-01T17:21:51.645Z,99044.19
2023-01-01T17:24:20.474Z,99040.66
2023-01-01T17:26:51.686Z,99043.34
2023-01-01T17:29:18.645Z,99037.16
2023-01-01T17:31:45.492Z,99033.41
2023-01-01T17:34:14.400Z,99039.00
2023-01-01T17:36:44.313Z,99030.34
2023-01-01T17:39:11.851Z,99028.47
2023-01-01T17:41:38.842Z,99024.13
2023-01-01T17:44:07.599Z,99023.06
2023-01-01T17:46:35.063Z,99032.81
2023-01-01T17:49:03.342Z,99032.81
2023-01-01T17:51:31.190Z,99039.25
2023-01-01T17:54:00.491Z,99042.78
2023-01-01T17:56:27.387Z,99039.25
2023-01-01T17:58:54.462Z,99039.47
2023-01-01T18:01:32.689Z,99034.91
2023-01-01T18:04:01.883Z,99035.75
2023-01-01T18:06:30.202Z,99034.06
2023-01-01T18:09:00.172Z,99029.50
2023-01-01T18:11:31.499Z,99032.44
2023-01-01T18:13:58.602Z,99025.19
2023-01-01T18:16:26.089Z,99030.81
2023-01-01T18:18:53.061Z,99028.09
2023-01-01T18:21:22.384Z,99036.19
2023-01-01T18:23:50.625Z,99018.38
2023-01-01T18:26:21.101Z,99025.41
2023-01-01T18:28:51.536Z,99029.16
2023-01-01T18:31:19.006Z,99025.41
2023-01-01T18:33:48.533Z,99027.28
2023-01-01T18:36:18.326Z,99030.81
2023-01-01T18:38:53.248Z,99031.03
2023-01-01T18:41:39.422Z,99027.28
2023-01-01T18:44:20.400Z,99025.63
2023-01-01T18:46:52.769Z,99019.41
2023-01-01T18:49:19.714Z,99018.59
2023-01-01T18:51:51.503Z,99017.78
2023-01-01T18:54:18.340Z,99020.47
2023-01-01T18:56:47.430Z,99026.69
2023-01-01T18:59:20.169Z,99024.00
2023-01-01T19:01:48.077Z,99022.94
2023-01-01T19:04:15.978Z,99018.38
2023-01-01T19:06:42.849Z,99022.94
2023-01-01T19:09:18.516Z,99027.50
2023-01-01T19:11:48.430Z,99029.16
2023-01-01T19:14:17.178Z,99037.25
2023-01-01T19:16:45.452Z,99034.78
2023-01-01T19:19:16.638Z,99031.03
2023-01-01T19:21:49.584Z,99036.41
2023-01-01T19:24:21.987Z,99026.69
2023-01-01T19:26:55.886Z,99030.44
2023-01-01T19:29:24.261Z,99032.09
2023-01-01T19:31:52.712Z,99023.16
2023-01-01T19:34:19.886Z,99016.97
2023-01-01T19:36:47.019Z,99015.09
2023-01-01T19:39:14.356Z,99019.66
2023-01-01T19:41:41.266Z,99019.66
2023-01-01T19:44:10.470Z,99016.38
2023-01-01T19:46:38.818Z,99013.66
2023-01-01T19:49:05.782Z,99022.59
2023-01-01T19:51:32.693Z,99024.22
2023-01-01T19:53:59.532Z,99014.28
2023-01-01T19:56:26.396Z,99023.38
2023-01-01T19:58:53.339Z,99027.97
2023-01-01T20:01:21.657Z,99029.00
2023-01-01T20:03:54.642Z,99032.53
2023-01-01T20:06:22.507Z,99024.44
2023-01-01T20:08:49.377Z,99027.16
2023-01-01T20:11:16.546Z,99028.78
2023-01-01T20:13:43.434Z,99018.00
2023-01-01T20:16:10.415Z,99024.22
2023-01-01T20:18:38.694Z,99023.38
2023-01-01T20:21:26.734Z,99025.06
2023-01-01T20:23:54.207Z,99018.44
2023-01-01T20:26:21.151Z,99017.63
2023-01-01T20:29:06.738Z,99021.75
2023-01-01T20:31:33.661Z,99025.50
2023-01-01T20:34:01.948Z,99028.22
2023-01-01T20:36:47.143Z,99019.91
2023-01-01T20:39:14.051Z,99007.66
2023-01-01T20:41:40.874Z,99015.53
2023-01-01T20:44:07.750Z,99024.69
2023-01-01T20:46:36.146Z,99012.84
2023-01-01T20:49:04.429Z,99021.75
2023-01-01T20:51:31.295Z,99019.06
2023-01-01T20:53:58.366Z,99022.81
2023-01-01T20:56:25.377Z,99022.81
2023-01-01T20:58:58.966Z,99023.38
2023-01-01T21:01:27.367Z,99023.63
2023-01-01T21:03:54.410Z,99018.22
2023-01-01T21:06:24.797Z,99014.72
2023-01-01T21:08:52.145Z,99009.34
2023-01-01T21:11:19.219Z,99007.44
2023-01-01T21:13:47.545Z,99010.16
2023-01-01T21:16:18.417Z,99014.72
2023-01-01T21:18:46.403Z,99017.19
2023-01-01T21:21:17.853Z,99019.06
2023-01-01T21:23:46.965Z,99013.91
2023-01-01T21:26:15.939Z,99016.38
2023-01-01T21:28:44.296Z,99018.44
2023-01-01T21:31:13.902Z,99017.19
2023-01-01T21:33:43.050Z,99023.63
2023-01-01T21:36:18.246Z,99025.94
2023-01-01T21:38:48.020Z,99032.97
2023-01-01T21:41:22.539Z,99026.53
2023-01-01T21:43:53.424Z,99022.19
2023-01-01T21:46:31.584Z,99024.44
2023-01-01T21:49:01.903Z,99026.31
2023-01-01T21:51:32.302Z,99026.53
2023-01-01T21:54:17.738Z,99033.78
2023-01-01T21:56:51.635Z,99039.78
2023-01-01T21:59:28.752Z,99042.72
2023-01-01T22:02:08.470Z,99046.25
2023-01-01T22:04:37.683Z,99039.19
2023-01-01T22:07:47.814Z,99032.97
2023-01-01T22:10:16.512Z,99032.38
2023-01-01T22:12:43.774Z,99014.31
2023-01-01T22:15:27.681Z,99018.69
2023-01-01T22:18:02.051Z,99011.63
2023-01-01T22:20:33.577Z,99014.94
2023-01-01T22:23:05.251Z,98999.22
2023-01-01T22:25:34.034Z,99003.53
2023-01-01T22:28:16.038Z,99017.63
2023-01-01T22:30:43.839Z,99029.22
2023-01-01T22:33:16.401Z,99016.78
2023-01-01T22:35:43.461Z,99041.03
2023-01-01T22:38:15.215Z,99039.19
2023-01-01T22:40:48.794Z,99039.19
2023-01-01T22:43:17.938Z,99038.16
2023-01-01T22:45:47.502Z,99034.63
2023-01-01T22:48:21.845Z,99033.59
2023-01-01T22:50:50.057Z,99035.47
2023-01-01T22:53:17.612Z,99030.91
2023-01-01T22:55:46.062Z,99030.25
2023-01-01T22:58:12.935Z,99029.22
2023-01-01T23:00:39.869Z,99036.28
2023-01-01T23:03:07.018Z,99042.72
2023-01-01T23:05:34.061Z,99037.31
2023-01-01T23:08:00.972Z,99042.72
2023-01-01T23:10:27.888Z,99035.47
2023-01-01T23:12:56.101Z,99040.84
2023-01-01T23:15:41.500Z,99037.94
2023-01-01T23:18:09.481Z,99042.09
2023-01-01T23:20:36.402Z,99048.31
2023-01-01T23:23:03.408Z,99038.16
2023-01-01T23:25:30.296Z,99045.41
2023-01-01T23:27:58.736Z,99041.69
2023-01-01T23:30:25.895Z,99036.28
2023-01-01T23:32:52.889Z,99040.00
2023-01-01T23:35:19.732Z,99031.94
2023-01-01T23:37:46.635Z,99031.31
2023-01-01T23:40:13.583Z,99029.47
2023-01-01T23:42:40.499Z,99034.63
2023-01-01T23:45:09.561Z,99036.72
2023-01-01T23:47:36.894Z,99022.19
2023-01-01T23:50:04.240Z,99017.63
2023-01-01T23:52:31.165Z,99024.88
2023-01-01T23:54:58.043Z,99023.22
2023-01-01T23:57:24.934Z,99007.91
2023-01-01T23:59:51.795Z,99000.63
